createdAt,value
2023-01-19T00:01:44.679Z,58.84
2023-01-19T00:04:12.744Z,59.23
2023-01-19T00:06:40.792Z,58.18
2023-01-19T00:09:09.083Z,59.12
2023-01-19T00:11:37.085Z,58.83
2023-01-19T00:14:05.791Z,59.60
2023-01-19T00:16:35.199Z,58.93
2023-01-19T00:19:03.435Z,58.81
2023-01-19T00:21:31.511Z,58.47
2023-01-19T00:23:59.522Z,58.41
2023-01-19T00:26:27.553Z,58.32
2023-01-19T00:28:55.578Z,58.55
2023-01-19T00:31:23.661Z,58.90
2023-01-19T00:33:53.174Z,59.12
2023-01-19T00:36:21.483Z,58.89
2023-01-19T00:38:49.585Z,59.01
2023-01-19T00:41:18.009Z,58.50
2023-01-19T00:43:45.306Z,58.82
2023-01-19T00:46:13.375Z,58.79
2023-01-19T00:48:41.474Z,58.88
2023-01-19T00:51:10.837Z,58.58
2023-01-19T00:53:38.829Z,58.59
2023-01-19T00:56:08.189Z,58.66
2023-01-19T00:58:36.211Z,58.33
2023-01-19T01:01:04.868Z,58.77
2023-01-19T01:03:33.632Z,58.95
2023-01-19T01:06:01.730Z,58.84
2023-01-19T01:08:31.268Z,58.51
2023-01-19T01:10:59.519Z,58.76
2023-01-19T01:13:28.355Z,59.10
2023-01-19T01:15:58.027Z,58.93
2023-01-19T01:18:26.579Z,59.30
2023-01-19T01:21:01.933Z,59.20
2023-01-19T01:23:31.348Z,58.66
2023-01-19T01:25:59.438Z,58.39
2023-01-19T01:28:27.853Z,58.60
2023-01-19T01:30:57.100Z,58.76
2023-01-19T01:33:41.092Z,58.57
2023-01-19T01:36:11.564Z,58.27
2023-01-19T01:38:41.460Z,58.67
2023-01-19T01:41:10.061Z,58.57
2023-01-19T01:43:47.748Z,58.45
2023-01-19T01:46:17.232Z,58.04
2023-01-19T01:48:53.619Z,58.89
2023-01-19T01:51:30.521Z,58.30
2023-01-19T01:54:21.083Z,58.82
2023-01-19T01:56:51.993Z,58.75
2023-01-19T01:59:26.663Z,57.97
2023-01-19T02:02:16.236Z,58.75
2023-01-19T02:04:48.640Z,58.97
2023-01-19T02:07:41.705Z,59.15
2023-01-19T02:10:29.670Z,58.65
2023-01-19T02:13:16.630Z,59.39
2023-01-19T02:15:45.517Z,58.56
2023-01-19T02:18:14.061Z,58.03
2023-01-19T02:20:49.521Z,58.27
2023-01-19T02:23:25.196Z,58.77
2023-01-19T02:25:54.954Z,58.19
2023-01-19T02:28:23.199Z,59.01
2023-01-19T02:30:51.313Z,58.78
2023-01-19T02:33:19.417Z,58.78
2023-01-19T02:35:48.946Z,58.46
2023-01-19T02:38:19.861Z,58.45
2023-01-19T02:40:49.640Z,58.86
2023-01-19T02:43:20.681Z,58.32
2023-01-19T02:45:49.945Z,59.09
2023-01-19T02:48:21.475Z,58.57
2023-01-19T02:50:53.028Z,57.96
2023-01-19T02:54:01.554Z,58.04
2023-01-19T02:57:17.403Z,58.29
2023-01-19T03:00:00.151Z,58.66
2023-01-19T03:02:43.682Z,58.54
2023-01-19T03:05:34.125Z,58.72
2023-01-19T03:08:15.607Z,57.89
2023-01-19T03:10:52.828Z,58.53
2023-01-19T03:13:29.935Z,59.03
2023-01-19T03:16:07.378Z,58.28
2023-01-19T03:18:42.792Z,58.48
2023-01-19T03:21:19.606Z,58.70
2023-01-19T03:23:50.814Z,58.93
2023-01-19T03:26:25.869Z,58.49
2023-01-19T03:28:56.621Z,58.20
2023-01-19T03:31:29.938Z,58.26
2023-01-19T03:34:01.830Z,59.21
2023-01-19T03:36:36.061Z,59.02
2023-01-19T03:39:07.589Z,59.27
2023-01-19T03:41:37.657Z,58.70
2023-01-19T03:44:07.634Z,59.19
2023-01-19T03:46:37.349Z,59.19
2023-01-19T03:49:05.949Z,58.36
2023-01-19T03:51:37.824Z,59.00
2023-01-19T03:54:06.883Z,58.69
2023-01-19T03:56:35.181Z,58.43
2023-01-19T03:59:05.372Z,59.02
2023-01-19T04:01:33.738Z,59.28
2023-01-19T04:04:03.231Z,58.33
2023-01-19T04:06:32.049Z,59.19
2023-01-19T04:09:00.147Z,59.33
2023-01-19T04:11:28.358Z,58.30
2023-01-19T04:13:56.481Z,58.30
2023-01-19T04:16:24.546Z,57.79
2023-01-19T04:18:53.391Z,58.17
2023-01-19T04:21:22.968Z,58.14
2023-01-19T04:23:51.115Z,58.67
2023-01-19T04:26:19.171Z,58.49
2023-01-19T04:28:47.223Z,58.33
2023-01-19T04:31:15.360Z,58.26
2023-01-19T04:33:43.397Z,58.10
2023-01-19T04:36:11.507Z,58.04
2023-01-19T04:38:40.926Z,58.22
2023-01-19T04:41:08.990Z,59.14
2023-01-19T04:43:37.096Z,58.99
2023-01-19T04:46:05.530Z,58.86
2023-01-19T04:48:35.071Z,59.68
2023-01-19T04:51:03.169Z,59.33
2023-01-19T04:53:31.218Z,58.66
2023-01-19T04:56:01.062Z,58.45
2023-01-19T04:58:29.095Z,59.11
2023-01-19T05:00:57.211Z,59.07
2023-01-19T05:03:26.587Z,58.39
2023-01-19T05:05:54.797Z,59.30
2023-01-19T05:08:22.830Z,59.21
2023-01-19T05:10:51.583Z,59.09
2023-01-19T05:13:21.105Z,59.09
2023-01-19T05:15:49.176Z,58.62
2023-01-19T05:18:17.308Z,58.84
2023-01-19T05:20:45.365Z,58.50
2023-01-19T05:23:13.395Z,58.13
2023-01-19T05:25:41.444Z,59.10
2023-01-19T05:28:09.549Z,59.35
2023-01-19T05:30:39.008Z,59.10
2023-01-19T05:33:07.191Z,58.47
2023-01-19T05:35:36.412Z,58.70
2023-01-19T05:38:04.929Z,59.07
2023-01-19T05:40:33.429Z,58.14
2023-01-19T05:43:05.122Z,58.82
2023-01-19T05:45:34.012Z,58.54
2023-01-19T05:48:03.432Z,58.40
2023-01-19T05:50:31.703Z,58.83
2023-01-19T05:53:01.161Z,58.17
2023-01-19T05:55:30.466Z,58.66
2023-01-19T05:57:58.514Z,58.72
2023-01-19T06:00:27.537Z,58.50
2023-01-19T06:02:55.667Z,58.43
2023-01-19T06:05:25.361Z,58.83
2023-01-19T06:07:53.630Z,58.38
2023-01-19T06:10:21.632Z,58.47
2023-01-19T06:12:51.707Z,58.55
2023-01-19T06:15:19.793Z,58.97
2023-01-19T06:17:48.121Z,58.61
2023-01-19T06:20:16.657Z,58.87
2023-01-19T06:22:46.227Z,58.27
2023-01-19T06:25:14.443Z,57.67
2023-01-19T06:27:45.336Z,58.53
2023-01-19T06:30:14.810Z,58.24
2023-01-19T06:32:43.105Z,58.64
2023-01-19T06:35:12.178Z,58.74
2023-01-19T06:37:40.655Z,58.84
2023-01-19T06:40:14.439Z,57.69
2023-01-19T06:42:42.889Z,59.16
2023-01-19T06:45:12.077Z,58.39
2023-01-19T06:47:40.167Z,58.89
2023-01-19T06:50:09.604Z,58.86
2023-01-19T06:52:42.162Z,59.08
2023-01-19T06:55:13.767Z,58.77
2023-01-19T06:57:42.271Z,58.50
2023-01-19T07:00:13.407Z,58.45
2023-01-19T07:02:43.526Z,59.26
2023-01-19T07:05:14.307Z,59.28
2023-01-19T07:07:43.181Z,58.44
2023-01-19T07:10:15.626Z,58.80
2023-01-19T07:12:46.367Z,59.56
2023-01-19T07:15:15.928Z,58.54
2023-01-19T07:17:44.779Z,58.72
2023-01-19T07:20:14.464Z,59.18
2023-01-19T07:22:45.668Z,58.63
2023-01-19T07:25:17.644Z,58.32
2023-01-19T07:27:45.642Z,58.42
2023-01-19T07:30:16.096Z,58.23
2023-01-19T07:32:44.368Z,58.03
2023-01-19T07:35:12.382Z,58.04
2023-01-19T07:37:40.467Z,58.73
2023-01-19T07:40:10.271Z,58.69
2023-01-19T07:42:39.737Z,58.18
2023-01-19T07:45:32.797Z,58.93
2023-01-19T07:48:00.911Z,57.83
2023-01-19T07:50:29.434Z,57.95
2023-01-19T07:52:57.873Z,57.43
2023-01-19T07:55:26.118Z,57.37
2023-01-19T07:57:55.434Z,57.73
2023-01-19T08:00:25.183Z,57.29
2023-01-19T08:02:53.897Z,57.73
2023-01-19T08:05:22.730Z,57.60
2023-01-19T08:07:53.266Z,57.50
2023-01-19T08:10:25.663Z,57.16
2023-01-19T08:12:55.505Z,56.68
2023-01-19T08:15:24.872Z,56.73
2023-01-19T08:17:57.894Z,56.69
2023-01-19T08:20:27.047Z,56.11
2023-01-19T08:23:00.124Z,56.83
2023-01-19T08:25:33.773Z,56.30
2023-01-19T08:28:04.017Z,55.99
2023-01-19T08:30:32.169Z,56.32
2023-01-19T08:33:04.871Z,55.73
2023-01-19T08:35:58.183Z,55.73
2023-01-19T08:38:27.346Z,56.37
2023-01-19T08:40:55.385Z,56.64
2023-01-19T08:43:24.894Z,56.76
2023-01-19T08:45:55.876Z,57.45
2023-01-19T08:48:24.952Z,56.69
2023-01-19T08:50:54.368Z,57.21
2023-01-19T08:53:23.782Z,57.49
2023-01-19T08:55:57.242Z,56.91
2023-01-19T08:58:26.752Z,57.35
2023-01-19T09:00:54.956Z,57.30
2023-01-19T09:03:23.571Z,56.90
2023-01-19T09:05:52.091Z,57.70
2023-01-19T09:08:20.087Z,57.71
2023-01-19T09:10:50.501Z,58.21
2023-01-19T09:13:20.334Z,58.01
2023-01-19T09:15:50.171Z,57.48
2023-01-19T09:18:21.567Z,57.41
2023-01-19T09:20:51.326Z,57.37
2023-01-19T09:23:21.164Z,57.44
2023-01-19T09:25:57.744Z,57.92
2023-01-19T09:28:26.197Z,58.10
2023-01-19T09:30:56.094Z,57.77
2023-01-19T09:33:25.674Z,58.08
2023-01-19T09:35:54.966Z,58.15
2023-01-19T09:38:23.911Z,57.70
2023-01-19T09:40:55.360Z,57.43
2023-01-19T09:43:38.611Z,58.03
2023-01-19T09:46:15.178Z,58.07
2023-01-19T09:48:49.476Z,58.13
2023-01-19T09:51:22.841Z,58.70
2023-01-19T09:54:10.361Z,58.59
2023-01-19T09:56:38.882Z,58.25
2023-01-19T09:59:21.305Z,58.55
2023-01-19T10:02:15.398Z,58.57
2023-01-19T10:04:44.680Z,58.82
2023-01-19T10:07:29.284Z,58.84
2023-01-19T10:10:19.343Z,58.24
2023-01-19T10:13:02.469Z,58.59
2023-01-19T10:15:47.179Z,58.38
2023-01-19T10:18:21.033Z,58.26
2023-01-19T10:20:54.344Z,58.13
2023-01-19T10:23:38.491Z,58.58
2023-01-19T10:26:15.507Z,58.57
2023-01-19T10:28:44.621Z,58.27
2023-01-19T10:31:13.255Z,58.33
2023-01-19T10:33:42.866Z,58.81
2023-01-19T10:36:19.614Z,58.26
2023-01-19T10:38:49.798Z,58.25
2023-01-19T10:41:27.263Z,57.60
2023-01-19T10:44:03.115Z,57.43
2023-01-19T10:46:39.436Z,57.23
2023-01-19T10:49:26.381Z,57.65
2023-01-19T10:51:55.967Z,57.72
2023-01-19T10:54:25.430Z,58.26
2023-01-19T10:56:57.927Z,58.54
2023-01-19T10:59:36.685Z,57.45
2023-01-19T11:02:20.261Z,57.60
2023-01-19T11:04:53.017Z,56.94
2023-01-19T11:07:24.430Z,58.02
2023-01-19T11:10:21.927Z,57.85
2023-01-19T11:13:02.193Z,58.08
2023-01-19T11:15:35.714Z,57.42
2023-01-19T11:18:06.526Z,57.81
2023-01-19T11:20:49.003Z,57.76
2023-01-19T11:23:26.837Z,56.39
2023-01-19T11:26:00.585Z,56.64
2023-01-19T11:28:35.163Z,56.85
2023-01-19T11:31:18.341Z,57.39
2023-01-19T11:33:51.803Z,57.77
2023-01-19T11:36:23.765Z,57.29
2023-01-19T11:38:53.882Z,57.16
2023-01-19T11:41:27.613Z,58.41
2023-01-19T11:43:58.908Z,58.21
2023-01-19T11:46:34.385Z,57.86
2023-01-19T11:49:07.865Z,57.47
2023-01-19T11:51:47.437Z,57.58
2023-01-19T11:54:23.697Z,57.41
2023-01-19T11:56:55.384Z,57.79
2023-01-19T11:59:25.075Z,58.37
2023-01-19T12:01:57.734Z,58.33
2023-01-19T12:04:31.234Z,57.94
2023-01-19T12:07:05.042Z,58.09
2023-01-19T12:09:42.535Z,57.96
2023-01-19T12:12:26.556Z,57.61
2023-01-19T12:15:00.810Z,58.49
2023-01-19T12:17:32.831Z,58.75
2023-01-19T12:20:08.880Z,58.20
2023-01-19T12:22:45.216Z,57.98
2023-01-19T12:25:25.714Z,58.35
2023-01-19T12:27:56.051Z,58.88
2023-01-19T12:30:27.412Z,58.86
2023-01-19T12:33:34.284Z,59.27
2023-01-19T12:36:04.677Z,59.19
2023-01-19T12:38:50.494Z,59.67
2023-01-19T12:41:31.434Z,59.89
2023-01-19T12:44:28.224Z,58.82
2023-01-19T12:47:03.329Z,59.45
2023-01-19T12:49:36.065Z,59.27
2023-01-19T12:52:21.229Z,59.38
2023-01-19T12:55:01.524Z,58.80
2023-01-19T12:57:36.599Z,59.94
2023-01-19T13:00:39.092Z,59.12
2023-01-19T13:03:59.388Z,59.62
2023-01-19T13:07:10.410Z,59.51
2023-01-19T13:09:40.047Z,59.88
2023-01-19T13:12:27.505Z,59.85
2023-01-19T13:15:30.305Z,59.79
2023-01-19T13:18:01.916Z,60.34
2023-01-19T13:20:37.424Z,60.49
2023-01-19T13:23:25.639Z,60.47
2023-01-19T13:26:06.321Z,60.89
2023-01-19T13:28:41.796Z,61.39
2023-01-19T13:31:10.914Z,61.48
2023-01-19T13:33:49.696Z,60.48
2023-01-19T13:36:30.040Z,60.32
2023-01-19T13:39:01.418Z,60.39
2023-01-19T13:41:33.867Z,60.82
2023-01-19T13:44:06.211Z,60.38
2023-01-19T13:46:34.619Z,60.72
2023-01-19T13:49:15.784Z,59.91
2023-01-19T13:51:43.849Z,60.23
2023-01-19T13:54:17.895Z,60.08
2023-01-19T13:56:50.081Z,60.55
2023-01-19T13:59:18.205Z,60.25
2023-01-19T14:01:47.715Z,59.47
2023-01-19T14:04:29.165Z,60.19
2023-01-19T14:07:01.871Z,60.59
2023-01-19T14:09:29.969Z,59.20
2023-01-19T14:12:15.896Z,58.86
2023-01-19T14:14:46.801Z,59.78
2023-01-19T14:17:25.898Z,60.15
2023-01-19T14:20:06.859Z,59.04
2023-01-19T14:22:44.225Z,59.51
2023-01-19T14:25:30.236Z,60.04
2023-01-19T14:28:44.284Z,60.41
2023-01-19T14:31:21.473Z,60.05
2023-01-19T14:33:51.873Z,59.26
2023-01-19T14:36:36.247Z,60.38
2023-01-19T14:39:05.202Z,59.49
2023-01-19T14:41:41.449Z,58.61
2023-01-19T14:44:11.015Z,59.07
2023-01-19T14:46:45.623Z,59.46
2023-01-19T14:49:23.569Z,59.41
2023-01-19T14:51:53.654Z,59.88
2023-01-19T14:54:32.979Z,59.30
2023-01-19T14:57:01.124Z,59.84
2023-01-19T14:59:29.216Z,58.85
2023-01-19T15:01:57.518Z,59.39
2023-01-19T15:04:26.004Z,58.97
2023-01-19T15:06:56.970Z,59.17
2023-01-19T15:09:26.547Z,59.62
2023-01-19T15:11:55.137Z,59.29
2023-01-19T15:14:23.588Z,58.92
2023-01-19T15:16:51.889Z,58.97
2023-01-19T15:19:20.044Z,58.85
2023-01-19T15:21:48.349Z,60.01
2023-01-19T15:24:18.147Z,59.31
2023-01-19T15:26:46.737Z,59.14
2023-01-19T15:29:23.747Z,59.01
2023-01-19T15:31:52.220Z,59.22
2023-01-19T15:34:20.289Z,59.14
2023-01-19T15:36:48.365Z,59.08
2023-01-19T15:39:17.837Z,59.75
2023-01-19T15:41:45.921Z,58.76
2023-01-19T15:44:14.002Z,59.78
2023-01-19T15:46:42.089Z,60.13
2023-01-19T15:49:10.142Z,60.11
2023-01-19T15:51:38.181Z,60.08
2023-01-19T15:54:06.316Z,59.54
2023-01-19T15:56:35.902Z,60.23
2023-01-19T15:59:04.279Z,59.42
2023-01-19T16:01:33.818Z,60.19
2023-01-19T16:04:05.079Z,59.95
2023-01-19T16:06:34.660Z,59.25
2023-01-19T16:09:03.872Z,60.04
2023-01-19T16:11:34.237Z,59.82
2023-01-19T16:14:04.343Z,59.55
2023-01-19T16:16:32.978Z,59.53
2023-01-19T16:19:00.998Z,59.99
2023-01-19T16:21:35.368Z,60.50
2023-01-19T16:24:03.427Z,60.39
2023-01-19T16:26:34.269Z,61.17
2023-01-19T16:29:08.539Z,60.08
2023-01-19T16:31:37.425Z,60.27
2023-01-19T16:34:05.873Z,60.28
2023-01-19T16:36:36.330Z,60.14
2023-01-19T16:39:08.019Z,60.34
2023-01-19T16:41:37.050Z,60.91
2023-01-19T16:44:07.366Z,59.59
2023-01-19T16:46:37.779Z,60.57
2023-01-19T16:49:08.290Z,60.08
2023-01-19T16:51:36.319Z,60.75
2023-01-19T16:54:04.863Z,60.94
2023-01-19T16:56:33.035Z,60.03
2023-01-19T16:59:01.420Z,59.98
2023-01-19T17:01:31.079Z,60.11
2023-01-19T17:03:59.087Z,59.55
2023-01-19T17:06:28.101Z,60.04
2023-01-19T17:08:56.228Z,59.82
2023-01-19T17:11:26.925Z,59.40
2023-01-19T17:13:57.447Z,60.03
2023-01-19T17:16:26.394Z,60.51
2023-01-19T17:18:58.422Z,60.52
2023-01-19T17:21:27.750Z,60.52
2023-01-19T17:23:57.663Z,61.18
2023-01-19T17:26:28.363Z,60.38
2023-01-19T17:29:00.743Z,60.26
2023-01-19T17:31:32.119Z,59.90
2023-01-19T17:34:02.012Z,60.12
2023-01-19T17:36:32.426Z,59.64
2023-01-19T17:39:06.804Z,60.30
2023-01-19T17:41:36.729Z,60.06
2023-01-19T17:44:06.871Z,60.44
2023-01-19T17:46:38.575Z,59.75
2023-01-19T17:49:09.091Z,60.55
2023-01-19T17:51:37.563Z,59.78
2023-01-19T17:54:05.792Z,60.47
2023-01-19T17:56:37.397Z,60.38
2023-01-19T17:59:08.021Z,60.42
2023-01-19T18:01:39.771Z,59.68
2023-01-19T18:04:10.226Z,59.98
2023-01-19T18:06:39.012Z,59.72
2023-01-19T18:09:07.768Z,60.30
2023-01-19T18:11:36.609Z,59.65
2023-01-19T18:14:05.960Z,59.64
2023-01-19T18:16:34.089Z,58.72
2023-01-19T18:19:02.181Z,59.13
2023-01-19T18:21:31.773Z,59.20
2023-01-19T18:24:02.755Z,59.27
2023-01-19T18:26:32.651Z,59.10
2023-01-19T18:29:01.372Z,60.00
2023-01-19T18:31:29.823Z,59.35
2023-01-19T18:33:57.975Z,60.32
2023-01-19T18:36:26.615Z,60.16
2023-01-19T18:38:56.115Z,60.49
2023-01-19T18:41:24.298Z,61.03
2023-01-19T18:43:54.490Z,60.84
2023-01-19T18:46:23.517Z,60.51
2023-01-19T18:48:51.876Z,60.64
2023-01-19T18:51:20.176Z,60.65
2023-01-19T18:53:48.395Z,60.66
2023-01-19T18:56:18.117Z,61.13
2023-01-19T18:58:46.393Z,61.19
2023-01-19T19:01:24.766Z,60.88
2023-01-19T19:03:54.402Z,61.36
2023-01-19T19:06:23.864Z,61.03
2023-01-19T19:08:53.196Z,61.09
2023-01-19T19:11:25.093Z,60.97
2023-01-19T19:13:54.746Z,61.47
2023-01-19T19:16:22.924Z,61.15
2023-01-19T19:18:51.077Z,61.31
2023-01-19T19:21:22.621Z,60.88
2023-01-19T19:23:52.407Z,60.93
2023-01-19T19:26:22.586Z,61.13
2023-01-19T19:28:50.639Z,61.34
2023-01-19T19:31:21.295Z,61.31
2023-01-19T19:33:51.803Z,61.27
2023-01-19T19:36:24.813Z,61.52
2023-01-19T19:38:53.390Z,61.32
2023-01-19T19:41:26.817Z,61.45
2023-01-19T19:43:56.093Z,61.22
2023-01-19T19:46:26.479Z,60.93
2023-01-19T19:48:55.503Z,61.15
2023-01-19T19:51:26.935Z,60.65
2023-01-19T19:53:56.779Z,61.14
2023-01-19T19:56:28.872Z,62.03
2023-01-19T19:58:59.388Z,61.58
2023-01-19T20:01:32.934Z,61.45
2023-01-19T20:04:08.511Z,61.33
2023-01-19T20:06:39.637Z,61.66
2023-01-19T20:09:09.187Z,61.70
2023-01-19T20:11:39.443Z,62.00
2023-01-19T20:14:08.896Z,62.34
2023-01-19T20:16:37.877Z,63.25
2023-01-19T20:19:06.873Z,62.49
2023-01-19T20:21:37.438Z,62.93
2023-01-19T20:24:09.461Z,63.38
2023-01-19T20:26:43.390Z,63.21
2023-01-19T20:29:12.831Z,61.99
2023-01-19T20:31:45.650Z,61.68
2023-01-19T20:34:17.299Z,61.76
2023-01-19T20:36:49.427Z,62.15
2023-01-19T20:39:17.753Z,61.55
2023-01-19T20:41:50.189Z,61.91
2023-01-19T20:44:22.298Z,61.97
2023-01-19T20:46:50.976Z,62.64
2023-01-19T20:49:19.281Z,61.47
2023-01-19T20:51:47.507Z,61.67
2023-01-19T20:54:19.491Z,61.19
2023-01-19T20:56:49.011Z,60.61
2023-01-19T20:59:17.277Z,60.64
2023-01-19T21:01:46.303Z,61.03
2023-01-19T21:04:15.254Z,60.79
2023-01-19T21:06:43.353Z,61.14
2023-01-19T21:09:12.180Z,61.57
2023-01-19T21:11:40.957Z,61.46
2023-01-19T21:14:10.367Z,61.51
2023-01-19T21:16:38.864Z,61.30
2023-01-19T21:19:06.977Z,61.32
2023-01-19T21:21:35.066Z,61.62
2023-01-19T21:24:04.940Z,61.34
2023-01-19T21:26:34.078Z,61.41
2023-01-19T21:29:04.658Z,61.46
2023-01-19T21:31:34.042Z,61.11
2023-01-19T21:34:02.100Z,61.06
2023-01-19T21:36:30.096Z,61.48
2023-01-19T21:39:00.598Z,61.12
2023-01-19T21:41:30.375Z,61.17
2023-01-19T21:43:59.832Z,61.09
2023-01-19T21:46:29.293Z,61.25
2023-01-19T21:49:00.304Z,61.06
2023-01-19T21:51:29.167Z,60.76
2023-01-19T21:53:59.529Z,60.94
2023-01-19T21:56:28.971Z,60.99
2023-01-19T21:58:57.915Z,61.79
2023-01-19T22:01:26.307Z,61.05
2023-01-19T22:03:55.955Z,60.75
2023-01-19T22:06:26.788Z,61.58
2023-01-19T22:08:57.704Z,61.33
2023-01-19T22:11:26.161Z,61.43
2023-01-19T22:13:54.495Z,61.10
2023-01-19T22:16:24.123Z,60.64
2023-01-19T22:18:56.253Z,61.48
2023-01-19T22:21:28.107Z,61.60
2023-01-19T22:23:59.356Z,61.29
2023-01-19T22:26:29.339Z,60.83
2023-01-19T22:28:59.950Z,60.83
2023-01-19T22:31:30.379Z,60.77
2023-01-19T22:33:59.045Z,60.76
2023-01-19T22:36:30.727Z,61.19
2023-01-19T22:39:01.100Z,60.60
2023-01-19T22:41:32.330Z,61.15
2023-01-19T22:44:02.540Z,60.53
2023-01-19T22:46:33.506Z,61.38
2023-01-19T22:49:01.793Z,61.19
2023-01-19T22:51:33.271Z,61.01
2023-01-19T22:54:01.876Z,60.61
2023-01-19T22:56:32.379Z,60.53
2023-01-19T22:59:01.554Z,60.19
2023-01-19T23:01:32.987Z,60.31
2023-01-19T23:04:01.883Z,60.43
2023-01-19T23:06:34.028Z,59.96
2023-01-19T23:09:05.001Z,60.51
2023-01-19T23:11:36.245Z,60.29
2023-01-19T23:14:06.919Z,60.18
2023-01-19T23:16:35.213Z,60.16
2023-01-19T23:19:03.879Z,59.42
2023-01-19T23:21:34.061Z,60.60
2023-01-19T23:24:04.369Z,60.28
2023-01-19T23:26:37.929Z,60.64
2023-01-19T23:29:08.893Z,60.84
2023-01-19T23:31:40.128Z,60.76
2023-01-19T23:34:10.821Z,60.92
2023-01-19T23:36:42.644Z,60.82
2023-01-19T23:39:15.873Z,61.10
2023-01-19T23:41:44.255Z,61.45
2023-01-19T23:44:12.419Z,61.04
2023-01-19T23:46:40.470Z,61.28
2023-01-19T23:49:08.571Z,61.01
2023-01-19T23:51:36.687Z,61.09
2023-01-19T23:54:06.099Z,61.52
2023-01-19T23:56:36.809Z,61.46
2023-01-19T23:59:07.799Z,61.63
